Time;durP1;ratioP1;P1;durP2;ratioP2;P2;SDS_P1;SDS_P2;PMS_P1;PMS_P2;Temp;Humidity;BMP_temperature;BMP_pressure;BME280_temperature;BME280_humidity;BME280_pressure;Samples;Min_cycle;Max_cycle;Signal;HPM_P1;HPM_P2
2021/10/31 00:00:49;;;;;;;24.88;19.98;;;9.90;99.90;;;;;;5159934;27;20198;-76
2021/10/31 00:03:17;;;;;;;22.35;19.95;;;9.90;99.90;;;;;;5164708;27;20249;-76
2021/10/31 00:05:45;;;;;;;24.50;19.80;;;9.80;99.90;;;;;;5172119;27;20239;-75
2021/10/31 00:08:12;;;;;;;22.55;20.15;;;9.80;99.90;;;;;;5176304;27;20279;-76
2021/10/31 00:10:39;;;;;;;23.90;19.65;;;9.80;99.90;;;;;;5163297;27;20207;-76
2021/10/31 00:13:06;;;;;;;27.25;21.05;;;9.70;99.90;;;;;;5158193;27;20235;-76
2021/10/31 00:15:33;;;;;;;25.33;20.30;;;9.70;99.90;;;;;;5158585;27;20199;-76
2021/10/31 00:18:01;;;;;;;25.05;22.00;;;9.70;99.90;;;;;;5158502;27;20213;-76
2021/10/31 00:20:28;;;;;;;26.75;21.20;;;9.70;99.90;;;;;;5158095;27;20214;-76
2021/10/31 00:22:55;;;;;;;23.77;20.10;;;9.70;99.90;;;;;;5157806;27;20593;-76
2021/10/31 00:25:23;;;;;;;23.05;19.70;;;9.60;99.90;;;;;;5158363;27;20293;-76
2021/10/31 00:27:50;;;;;;;28.67;20.48;;;9.60;99.90;;;;;;5158642;27;20211;-76
2021/10/31 00:30:17;;;;;;;28.48;21.55;;;9.60;99.90;;;;;;5163612;27;20198;-76
2021/10/31 00:32:44;;;;;;;30.45;22.08;;;9.50;99.90;;;;;;5173941;27;20679;-76
2021/10/31 00:35:12;;;;;;;28.42;21.92;;;9.40;99.90;;;;;;5157885;27;20203;-76
2021/10/31 00:37:39;;;;;;;23.20;19.77;;;9.40;99.90;;;;;;5157082;27;20210;-77
2021/10/31 00:40:07;;;;;;;24.73;20.58;;;9.40;99.90;;;;;;5157506;27;20234;-77
2021/10/31 00:42:34;;;;;;;22.25;19.45;;;9.30;99.90;;;;;;5157174;27;20230;-77
2021/10/31 00:45:01;;;;;;;23.52;20.90;;;9.20;99.90;;;;;;5157681;27;20259;-77
2021/10/31 00:47:27;;;;;;;24.50;20.35;;;9.30;99.90;;;;;;5158671;27;20290;-77
2021/10/31 00:49:54;;;;;;;23.27;19.02;;;9.20;99.90;;;;;;5159420;27;20207;-77
2021/10/31 00:52:24;;;;;;;21.45;18.50;;;9.10;99.90;;;;;;5158393;27;20226;-77
2021/10/31 00:54:51;;;;;;;20.73;18.38;;;9.10;99.90;;;;;;5158282;27;20306;-76
2021/10/31 00:57:18;;;;;;;26.25;21.20;;;9.00;99.90;;;;;;5158647;27;20295;-77
2021/10/31 00:59:45;;;;;;;24.10;18.98;;;9.00;99.90;;;;;;5168147;27;20255;-77
2021/10/31 01:02:14;;;;;;;24.65;20.25;;;8.90;99.90;;;;;;5161453;27;20310;-77
2021/10/31 01:04:45;;;;;;;25.50;20.85;;;8.90;99.90;;;;;;5168988;27;20211;-77
2021/10/31 01:07:25;;;;;;;24.88;20.92;;;9.00;99.90;;;;;;5160326;27;20273;-77
2021/10/31 01:10:09;;;;;;;27.27;22.00;;;9.00;99.90;;;;;;5156838;27;20277;-77
2021/10/31 01:13:03;;;;;;;26.48;21.10;;;8.90;99.90;;;;;;5171023;22;20233;-73
2021/10/31 01:15:37;;;;;;;28.27;21.50;;;8.90;99.90;;;;;;5128600;27;20208;-73
2021/10/31 01:18:28;;;;;;;25.60;21.25;;;8.80;99.90;;;;;;5134938;27;20347;-73
2021/10/31 01:21:07;;;;;;;28.33;21.30;;;8.80;99.90;;;;;;5134636;27;20214;-74
2021/10/31 01:23:51;;;;;;;23.35;20.55;;;8.70;99.90;;;;;;5134927;27;20224;-74
2021/10/31 01:26:36;;;;;;;27.00;21.20;;;8.70;99.90;;;;;;5134703;27;20227;-73
2021/10/31 01:29:24;;;;;;;30.20;22.85;;;8.70;99.90;;;;;;5140575;27;20270;-75
2021/10/31 01:32:01;;;;;;;31.65;22.35;;;8.70;99.90;;;;;;5155803;27;20204;-76
2021/10/31 01:34:39;;;;;;;23.92;20.20;;;8.60;99.90;;;;;;5156099;27;20647;-74
2021/10/31 01:37:12;;;;;;;24.48;19.70;;;8.70;99.90;;;;;;5148241;27;20211;-75
2021/10/31 01:39:45;;;;;;;26.92;21.35;;;8.70;99.90;;;;;;5152346;27;20199;-74
2021/10/31 01:42:22;;;;;;;24.98;20.55;;;8.70;99.90;;;;;;5147186;27;20276;-74
2021/10/31 01:44:54;;;;;;;25.42;21.15;;;8.80;99.90;;;;;;5149115;27;20226;-74
2021/10/31 01:47:35;;;;;;;26.38;21.77;;;8.70;99.90;;;;;;5148942;27;20230;-74
2021/10/31 01:50:09;;;;;;;28.27;21.95;;;8.70;99.90;;;;;;5136979;27;20204;-74
2021/10/31 01:52:40;;;;;;;29.27;21.65;;;8.70;99.90;;;;;;5135697;27;20227;-74
2021/10/31 01:55:10;;;;;;;23.77;20.20;;;8.70;99.90;;;;;;5134919;27;20581;-73
2021/10/31 01:57:43;;;;;;;28.13;21.13;;;8.70;99.90;;;;;;5134217;27;20207;-74
2021/10/31 02:00:13;;;;;;;27.77;22.10;;;8.70;99.90;;;;;;5134742;27;20211;-73
2021/10/31 02:02:44;;;;;;;28.33;21.58;;;8.80;99.90;;;;;;5134334;27;20226;-74
2021/10/31 02:05:13;;;;;;;27.08;22.60;;;8.80;99.90;;;;;;5134288;27;20204;-74
2021/10/31 02:07:44;;;;;;;24.45;21.30;;;8.90;99.90;;;;;;5133734;27;20231;-74
2021/10/31 02:10:14;;;;;;;24.10;21.10;;;8.90;99.90;;;;;;5133565;27;20188;-74
2021/10/31 02:12:45;;;;;;;26.17;21.25;;;9.00;99.90;;;;;;5133306;27;20310;-74
2021/10/31 02:15:15;;;;;;;30.23;21.88;;;9.00;99.90;;;;;;5134362;27;20198;-74
2021/10/31 02:17:43;;;;;;;31.63;23.05;;;9.00;99.90;;;;;;5133639;27;20677;-73
2021/10/31 02:20:11;;;;;;;28.05;21.55;;;9.00;99.90;;;;;;5133491;27;20665;-74
2021/10/31 02:22:39;;;;;;;25.92;21.48;;;9.10;99.90;;;;;;5134068;27;20231;-71
2021/10/31 02:25:08;;;;;;;31.60;22.20;;;9.10;99.90;;;;;;5133861;27;20211;-74
2021/10/31 02:27:41;;;;;;;28.35;23.52;;;9.10;99.90;;;;;;5133643;27;20394;-74
2021/10/31 02:30:10;;;;;;;25.48;21.73;;;9.00;99.90;;;;;;5134095;27;20215;-75
2021/10/31 02:32:37;;;;;;;25.25;19.92;;;8.90;99.90;;;;;;5133373;27;20231;-73
2021/10/31 02:35:08;;;;;;;24.85;20.90;;;8.80;99.90;;;;;;5133710;27;20204;-73
2021/10/31 02:37:37;;;;;;;25.73;19.75;;;8.80;99.90;;;;;;5133742;27;20226;-73
2021/10/31 02:40:05;;;;;;;27.13;20.98;;;8.70;99.90;;;;;;5133659;27;20256;-73
2021/10/31 02:42:33;;;;;;;26.42;19.48;;;8.70;99.90;;;;;;5133593;27;20223;-73
2021/10/31 02:45:02;;;;;;;22.23;18.27;;;8.70;99.90;;;;;;5133577;27;20203;-73
2021/10/31 02:47:32;;;;;;;26.73;21.27;;;8.70;99.90;;;;;;5133975;27;20219;-73
2021/10/31 02:50:00;;;;;;;26.48;20.10;;;8.60;99.90;;;;;;5135754;27;20215;-74
2021/10/31 02:52:36;;;;;;;24.42;20.23;;;8.60;99.90;;;;;;5135693;27;20411;-72
2021/10/31 02:55:10;;;;;;;24.45;19.67;;;8.50;99.90;;;;;;5135370;27;20297;-75
2021/10/31 02:57:43;;;;;;;32.03;21.58;;;8.50;99.90;;;;;;5136147;27;20203;-73
2021/10/31 03:00:13;;;;;;;23.20;19.92;;;8.60;99.90;;;;;;5136804;27;20245;-74
2021/10/31 03:02:41;;;;;;;27.02;19.98;;;8.50;99.90;;;;;;5138146;27;20235;-74
2021/10/31 03:05:09;;;;;;;25.92;20.08;;;8.60;99.90;;;;;;5137888;27;20203;-74
2021/10/31 03:07:36;;;;;;;25.17;19.40;;;8.60;99.90;;;;;;5137265;27;20262;-75
2021/10/31 03:10:05;;;;;;;28.88;20.50;;;8.70;99.90;;;;;;5137593;27;20203;-74
2021/10/31 03:12:32;;;;;;;21.42;18.48;;;8.80;99.90;;;;;;5137042;27;20227;-75
2021/10/31 03:15:00;;;;;;;23.42;19.48;;;8.80;99.90;;;;;;5140482;27;20229;-73
2021/10/31 03:17:27;;;;;;;23.65;19.35;;;8.90;99.90;;;;;;5135195;27;20200;-74
2021/10/31 03:19:54;;;;;;;23.67;19.05;;;8.90;99.90;;;;;;5135006;27;20231;-73
2021/10/31 03:22:21;;;;;;;21.17;17.80;;;8.90;99.90;;;;;;5137100;27;20318;-74
2021/10/31 03:24:48;;;;;;;21.67;18.85;;;8.90;99.90;;;;;;5137539;27;20203;-73
2021/10/31 03:27:15;;;;;;;21.73;18.33;;;8.90;99.90;;;;;;5138100;27;20230;-73
2021/10/31 03:29:41;;;;;;;24.15;18.42;;;8.90;99.90;;;;;;5136972;27;20686;-73
2021/10/31 03:32:09;;;;;;;21.10;18.20;;;9.00;99.90;;;;;;5137260;27;20219;-73
2021/10/31 03:35:06;;;;;;;23.85;19.45;;;9.00;99.90;;;;;;5138233;27;20246;-75
2021/10/31 03:37:33;;;;;;;19.48;17.15;;;9.00;99.90;;;;;;5139269;27;20224;-75
2021/10/31 03:39:59;;;;;;;25.92;20.52;;;9.00;99.90;;;;;;5141694;27;20245;-74
2021/10/31 03:42:26;;;;;;;23.50;19.70;;;9.00;99.90;;;;;;5142646;27;20224;-74
2021/10/31 03:44:53;;;;;;;21.52;18.92;;;8.90;99.90;;;;;;5138067;27;20228;-74
2021/10/31 03:47:23;;;;;;;24.50;18.98;;;8.90;99.90;;;;;;5137642;27;20228;-76
2021/10/31 03:49:50;;;;;;;25.73;21.40;;;8.90;99.90;;;;;;5138321;27;20208;-73
2021/10/31 03:52:17;;;;;;;26.00;20.23;;;8.90;99.90;;;;;;5146386;27;20234;-74
2021/10/31 03:54:44;;;;;;;23.85;19.77;;;8.90;99.90;;;;;;5146565;27;20223;-73
2021/10/31 03:57:11;;;;;;;23.23;19.27;;;8.80;99.90;;;;;;5144191;27;20525;-75
2021/10/31 03:59:38;;;;;;;25.58;20.23;;;8.90;99.90;;;;;;5144069;27;20204;-71
2021/10/31 04:02:05;;;;;;;25.42;18.92;;;8.80;99.90;;;;;;5142313;27;20438;-73
2021/10/31 04:04:37;;;;;;;22.15;17.90;;;8.80;99.90;;;;;;5138610;27;20210;-73
2021/10/31 04:07:04;;;;;;;23.15;20.15;;;8.80;99.90;;;;;;5138691;27;20224;-72
2021/10/31 04:09:31;;;;;;;23.30;18.45;;;8.80;99.90;;;;;;5138251;27;20663;-73
2021/10/31 04:11:58;;;;;;;24.50;18.83;;;8.80;99.90;;;;;;5138051;27;20207;-73
2021/10/31 04:14:25;;;;;;;20.50;18.30;;;8.90;99.90;;;;;;5137973;27;20204;-72
2021/10/31 04:16:52;;;;;;;20.88;18.40;;;8.90;99.90;;;;;;5137128;27;20195;-74
2021/10/31 04:19:18;;;;;;;19.75;17.50;;;8.90;99.90;;;;;;5135927;27;20203;-73
2021/10/31 04:21:47;;;;;;;19.55;16.50;;;9.00;99.90;;;;;;5136141;27;20204;-73
2021/10/31 04:24:14;;;;;;;20.60;17.27;;;9.00;99.90;;;;;;5136077;27;20210;-74
2021/10/31 04:26:40;;;;;;;20.65;16.45;;;9.00;99.90;;;;;;5136055;27;20286;-74
2021/10/31 04:29:07;;;;;;;18.85;16.85;;;9.10;99.90;;;;;;5135461;27;20229;-74
2021/10/31 04:31:34;;;;;;;18.38;16.10;;;9.10;99.90;;;;;;5135138;27;20301;-73
2021/10/31 04:34:01;;;;;;;18.77;16.58;;;9.20;99.90;;;;;;5136095;27;20230;-74
2021/10/31 04:36:28;;;;;;;23.02;18.80;;;9.20;99.90;;;;;;5136162;27;20208;-74
2021/10/31 04:38:56;;;;;;;26.40;18.52;;;9.10;99.90;;;;;;5136088;27;20202;-73
2021/10/31 04:41:25;;;;;;;23.70;18.90;;;9.10;99.90;;;;;;5136074;27;20239;-74
2021/10/31 04:43:52;;;;;;;21.63;18.77;;;9.10;99.90;;;;;;5135835;27;20227;-73
2021/10/31 04:46:18;;;;;;;23.77;18.08;;;9.10;99.90;;;;;;5135536;27;20637;-73
2021/10/31 04:48:45;;;;;;;19.45;17.42;;;9.10;99.90;;;;;;5135149;27;20239;-73
2021/10/31 04:51:12;;;;;;;21.65;18.92;;;9.10;99.90;;;;;;5135417;27;20204;-73
2021/10/31 04:53:40;;;;;;;23.58;18.65;;;9.10;99.90;;;;;;5135208;27;20219;-72
2021/10/31 04:56:08;;;;;;;24.33;21.65;;;9.10;99.90;;;;;;5135525;27;20206;-73
2021/10/31 04:58:35;;;;;;;23.08;20.50;;;9.10;99.90;;;;;;5134883;27;20238;-73
2021/10/31 05:01:02;;;;;;;23.42;19.38;;;9.10;99.90;;;;;;5135321;27;20210;-73
2021/10/31 05:03:29;;;;;;;23.90;19.55;;;9.10;99.90;;;;;;5136127;27;20327;-73
2021/10/31 05:05:57;;;;;;;21.58;18.75;;;9.10;99.90;;;;;;5136024;27;20235;-74
2021/10/31 05:08:24;;;;;;;23.83;19.80;;;9.10;99.90;;;;;;5135788;27;20220;-75
2021/10/31 05:10:51;;;;;;;22.67;18.27;;;9.10;99.90;;;;;;5136449;27;20208;-74
2021/10/31 05:13:19;;;;;;;23.45;18.60;;;9.10;99.90;;;;;;5139577;27;20262;-74
2021/10/31 05:15:46;;;;;;;20.80;17.58;;;9.20;99.90;;;;;;5140086;27;20233;-74
2021/10/31 05:18:13;;;;;;;21.55;18.00;;;9.20;99.90;;;;;;5139303;27;20210;-73
2021/10/31 05:20:40;;;;;;;22.08;19.30;;;9.30;99.90;;;;;;5138537;27;20200;-73
2021/10/31 05:23:07;;;;;;;22.98;19.20;;;9.20;99.90;;;;;;5138615;27;20260;-73
2021/10/31 05:25:34;;;;;;;22.40;18.75;;;9.10;99.90;;;;;;5136814;27;20239;-73
2021/10/31 05:28:01;;;;;;;21.70;18.92;;;9.20;99.90;;;;;;5134921;27;20227;-74
2021/10/31 05:30:29;;;;;;;18.90;16.30;;;9.30;99.90;;;;;;5134857;27;20212;-74
2021/10/31 05:32:56;;;;;;;21.90;17.48;;;9.40;99.90;;;;;;5136079;27;20777;-73
2021/10/31 05:35:23;;;;;;;20.80;17.83;;;9.40;99.90;;;;;;5137572;27;20234;-74
2021/10/31 05:37:56;;;;;;;21.13;17.55;;;9.40;99.90;;;;;;5135607;27;20199;-73
2021/10/31 05:40:23;;;;;;;19.50;17.35;;;9.30;99.90;;;;;;5136028;27;20575;-73
2021/10/31 05:42:50;;;;;;;17.17;15.30;;;9.30;99.90;;;;;;5135781;27;20265;-74
2021/10/31 05:45:17;;;;;;;17.80;14.82;;;9.30;99.90;;;;;;5134944;27;20663;-74
2021/10/31 05:47:45;;;;;;;22.95;17.17;;;9.30;99.90;;;;;;5134318;27;20223;-73
2021/10/31 05:50:14;;;;;;;19.48;16.77;;;9.30;99.90;;;;;;5134307;27;20584;-74
2021/10/31 05:52:41;;;;;;;16.90;15.13;;;9.20;99.90;;;;;;5134625;27;20231;-74
2021/10/31 05:55:10;;;;;;;20.13;17.42;;;9.20;99.90;;;;;;5134815;27;20214;-74
2021/10/31 05:57:37;;;;;;;19.45;17.02;;;9.20;99.90;;;;;;5134648;27;20569;-74
2021/10/31 06:00:07;;;;;;;16.23;14.48;;;9.20;99.90;;;;;;5135103;27;20211;-73
2021/10/31 06:02:34;;;;;;;19.08;16.17;;;9.20;99.90;;;;;;5134547;27;20262;-73
2021/10/31 06:05:03;;;;;;;22.75;16.70;;;9.20;99.90;;;;;;5135092;27;20203;-74
2021/10/31 06:07:31;;;;;;;17.63;14.85;;;9.10;99.90;;;;;;5133889;27;20224;-74
2021/10/31 06:09:58;;;;;;;17.90;16.00;;;9.10;99.90;;;;;;5133421;27;20231;-74
2021/10/31 06:12:25;;;;;;;16.67;15.00;;;9.10;99.90;;;;;;5133654;27;20239;-74
2021/10/31 06:14:52;;;;;;;16.25;14.38;;;9.10;99.90;;;;;;5134072;27;20275;-74
2021/10/31 06:17:19;;;;;;;17.23;15.43;;;9.10;99.90;;;;;;5134718;27;20210;-74
2021/10/31 06:19:46;;;;;;;17.98;15.23;;;9.10;99.90;;;;;;5134686;27;20623;-74
2021/10/31 06:22:15;;;;;;;16.40;14.70;;;9.00;99.90;;;;;;5136217;27;20223;-73
2021/10/31 06:24:42;;;;;;;17.10;13.70;;;9.10;99.90;;;;;;5134345;27;20211;-74
2021/10/31 06:27:09;;;;;;;16.10;14.00;;;9.10;99.90;;;;;;5133770;27;20203;-73
2021/10/31 06:29:36;;;;;;;17.92;14.60;;;9.10;99.90;;;;;;5133281;27;20286;-73
2021/10/31 06:32:03;;;;;;;16.33;14.73;;;9.00;99.90;;;;;;5133991;27;20712;-73
2021/10/31 06:34:30;;;;;;;17.10;14.75;;;9.00;99.90;;;;;;5133706;27;20203;-74
2021/10/31 06:36:57;;;;;;;17.55;15.43;;;9.00;99.90;;;;;;5134453;27;20199;-73
2021/10/31 06:39:25;;;;;;;17.10;15.30;;;9.00;99.90;;;;;;5133441;27;20673;-73
2021/10/31 06:41:52;;;;;;;17.15;15.40;;;9.00;99.90;;;;;;5134308;27;20657;-73
2021/10/31 06:44:19;;;;;;;17.38;15.15;;;9.10;99.90;;;;;;5134649;27;20204;-73
2021/10/31 06:46:46;;;;;;;15.18;13.60;;;9.10;99.90;;;;;;5134281;27;20226;-74
2021/10/31 06:49:13;;;;;;;16.67;14.88;;;9.10;99.90;;;;;;5134489;27;20223;-73
2021/10/31 06:51:40;;;;;;;17.10;14.65;;;9.10;99.90;;;;;;5134483;27;20272;-74
2021/10/31 06:54:08;;;;;;;18.15;15.18;;;9.10;99.90;;;;;;5134165;27;20377;-74
2021/10/31 06:56:36;;;;;;;17.13;14.88;;;9.10;99.90;;;;;;5134217;27;20294;-75
2021/10/31 06:59:03;;;;;;;18.05;16.17;;;9.20;99.90;;;;;;5132963;27;20200;-74
2021/10/31 07:01:30;;;;;;;14.90;13.30;;;9.20;99.90;;;;;;5133484;27;20227;-74
2021/10/31 07:03:59;;;;;;;17.55;14.32;;;9.30;99.90;;;;;;5133308;27;20247;-73
2021/10/31 07:06:29;;;;;;;15.88;13.50;;;9.40;99.90;;;;;;5133359;27;20313;-73
2021/10/31 07:08:55;;;;;;;16.25;14.55;;;9.40;99.90;;;;;;5133500;27;20224;-74
2021/10/31 07:11:22;;;;;;;16.65;14.82;;;9.50;99.90;;;;;;5133423;27;20203;-74
2021/10/31 07:13:51;;;;;;;16.30;14.45;;;9.60;99.90;;;;;;5134595;27;20231;-73
2021/10/31 07:16:18;;;;;;;17.13;15.32;;;9.70;99.90;;;;;;5134101;27;20204;-73
2021/10/31 07:18:47;;;;;;;15.73;14.20;;;9.70;99.90;;;;;;5133656;27;20217;-73
2021/10/31 07:21:14;;;;;;;16.63;14.18;;;9.70;99.90;;;;;;5133727;27;20553;-74
2021/10/31 07:23:41;;;;;;;15.55;13.93;;;9.90;99.90;;;;;;5133129;27;20233;-75
2021/10/31 07:26:08;;;;;;;15.27;13.68;;;10.00;99.90;;;;;;5132943;27;20766;-74
2021/10/31 07:28:35;;;;;;;15.80;14.10;;;10.10;99.90;;;;;;5133064;27;20222;-76
2021/10/31 07:31:08;;;;;;;15.70;14.02;;;10.20;99.90;;;;;;5133293;27;20204;-73
2021/10/31 07:33:36;;;;;;;16.45;14.55;;;10.30;99.90;;;;;;5132252;27;20227;-75
2021/10/31 07:36:02;;;;;;;19.30;17.20;;;10.40;99.90;;;;;;5133264;27;20291;-74
2021/10/31 07:38:30;;;;;;;18.35;15.98;;;10.40;99.90;;;;;;5133046;27;20564;-74
2021/10/31 07:40:57;;;;;;;16.88;15.07;;;10.50;99.90;;;;;;5132864;27;20706;-74
2021/10/31 07:43:23;;;;;;;17.02;13.88;;;10.70;99.90;;;;;;5132914;27;20587;-74
2021/10/31 07:45:50;;;;;;;15.45;13.93;;;10.90;99.90;;;;;;5133551;27;20205;-73
2021/10/31 07:48:19;;;;;;;15.40;13.82;;;11.10;99.90;;;;;;5133475;27;20216;-73
2021/10/31 07:50:46;;;;;;;14.25;12.35;;;11.10;99.90;;;;;;5133660;27;20220;-74
2021/10/31 07:53:13;;;;;;;13.60;12.20;;;11.20;99.90;;;;;;5132482;27;20236;-74
2021/10/31 07:55:41;;;;;;;12.98;11.77;;;11.30;99.90;;;;;;5132953;27;20209;-74
2021/10/31 07:58:09;;;;;;;12.65;11.52;;;11.40;99.90;;;;;;5133030;27;20196;-74
2021/10/31 08:00:37;;;;;;;12.07;10.98;;;11.40;99.90;;;;;;5132689;27;20259;-73
2021/10/31 08:03:04;;;;;;;11.73;10.63;;;11.50;99.90;;;;;;5132575;27;20230;-74
2021/10/31 08:05:32;;;;;;;13.07;11.38;;;11.50;99.90;;;;;;5132814;27;20205;-74
2021/10/31 08:07:59;;;;;;;12.10;10.90;;;11.50;99.90;;;;;;5135062;27;20205;-73
2021/10/31 08:10:27;;;;;;;11.18;10.07;;;11.40;99.90;;;;;;5136314;27;20205;-73
2021/10/31 08:12:54;;;;;;;11.40;10.30;;;11.40;99.90;;;;;;5137219;27;20242;-74
2021/10/31 08:15:21;;;;;;;11.65;10.45;;;11.60;99.90;;;;;;5137988;27;20233;-75
2021/10/31 08:17:48;;;;;;;10.68;9.68;;;11.60;99.90;;;;;;5137519;27;20206;-74
2021/10/31 08:20:16;;;;;;;11.00;9.90;;;11.60;99.90;;;;;;5136776;27;20202;-73
2021/10/31 08:22:44;;;;;;;10.68;9.57;;;11.60;99.90;;;;;;5137872;27;20421;-74
2021/10/31 08:25:12;;;;;;;11.55;10.38;;;11.80;99.90;;;;;;5137924;27;20210;-73
2021/10/31 08:27:39;;;;;;;11.75;10.63;;;12.00;99.90;;;;;;5138062;27;20296;-73
2021/10/31 08:30:07;;;;;;;11.13;9.48;;;12.00;99.90;;;;;;5137880;27;20782;-73
2021/10/31 08:32:43;;;;;;;11.93;10.45;;;12.10;99.90;;;;;;5136873;27;20237;-75
2021/10/31 08:35:10;;;;;;;11.10;10.10;;;12.30;99.90;;;;;;5137504;27;20581;-74
2021/10/31 08:37:37;;;;;;;11.73;10.52;;;12.40;99.90;;;;;;5137237;27;20234;-74
2021/10/31 08:40:07;;;;;;;10.10;8.77;;;12.40;99.90;;;;;;5136697;27;20208;-73
2021/10/31 08:42:34;;;;;;;9.65;8.70;;;12.50;99.90;;;;;;5136437;27;20729;-74
2021/10/31 08:45:01;;;;;;;9.40;8.50;;;12.70;99.90;;;;;;5136634;27;20206;-73
2021/10/31 08:47:28;;;;;;;10.07;8.68;;;12.90;99.90;;;;;;5136681;27;20206;-73
2021/10/31 08:49:55;;;;;;;13.13;8.40;;;13.00;99.90;;;;;;5136707;27;20313;-74
2021/10/31 08:52:22;;;;;;;9.75;7.22;;;13.20;99.90;;;;;;5139164;27;20222;-74
2021/10/31 08:54:48;;;;;;;9.00;8.10;;;13.30;99.90;;;;;;5138667;27;20207;-73
2021/10/31 08:57:17;;;;;;;7.90;7.30;;;13.40;99.90;;;;;;5141100;27;20298;-73
2021/10/31 08:59:44;;;;;;;7.95;7.15;;;13.60;99.90;;;;;;5139550;27;20242;-75
2021/10/31 09:02:10;;;;;;;8.65;7.85;;;13.70;99.90;;;;;;5137417;27;20671;-74
2021/10/31 09:04:39;;;;;;;6.55;5.95;;;13.80;99.90;;;;;;5137797;27;20208;-73
2021/10/31 09:07:06;;;;;;;6.03;5.45;;;13.80;99.90;;;;;;5136337;27;20204;-73
2021/10/31 09:09:33;;;;;;;6.10;5.50;;;14.00;99.90;;;;;;5135931;27;20228;-74
2021/10/31 09:12:00;;;;;;;5.25;4.75;;;14.20;99.90;;;;;;5135824;27;20207;-73
2021/10/31 09:14:29;;;;;;;5.45;5.03;;;14.40;97.90;;;;;;5136093;27;20226;-74
2021/10/31 09:16:55;;;;;;;6.03;5.43;;;14.50;96.40;;;;;;5135764;27;20214;-73
2021/10/31 09:19:22;;;;;;;5.10;4.70;;;14.50;95.20;;;;;;5134773;27;20961;-74
2021/10/31 09:21:49;;;;;;;4.97;4.57;;;14.40;96.10;;;;;;5135200;27;20655;-74
2021/10/31 09:24:16;;;;;;;6.30;5.70;;;14.60;97.00;;;;;;5135450;27;21011;-73
2021/10/31 09:26:43;;;;;;;6.80;6.20;;;14.90;95.80;;;;;;5135359;27;20272;-73
2021/10/31 09:29:09;;;;;;;6.27;5.77;;;15.20;93.40;;;;;;5135070;27;20497;-74
2021/10/31 09:31:38;;;;;;;7.17;6.43;;;15.10;92.20;;;;;;5135466;27;20453;-73
2021/10/31 09:34:05;;;;;;;6.57;5.97;;;15.40;91.60;;;;;;5134904;27;20476;-73
2021/10/31 09:36:35;;;;;;;6.03;5.53;;;15.70;90.30;;;;;;5135464;27;20449;-74
2021/10/31 09:39:04;;;;;;;5.73;5.23;;;16.00;90.00;;;;;;5134081;27;20453;-75
2021/10/31 09:41:31;;;;;;;6.30;5.70;;;16.40;87.10;;;;;;5134493;27;20956;-74
2021/10/31 09:44:10;;;;;;;5.33;4.80;;;16.70;82.30;;;;;;5134251;27;20560;-74
2021/10/31 09:46:40;;;;;;;5.87;5.37;;;16.90;78.40;;;;;;5134757;27;20480;-73
2021/10/31 09:49:07;;;;;;;6.57;4.87;;;16.60;77.00;;;;;;5134065;27;20572;-74
2021/10/31 09:51:34;;;;;;;5.43;4.93;;;16.20;79.80;;;;;;5135028;27;20449;-74
2021/10/31 09:54:02;;;;;;;5.63;5.00;;;16.30;81.00;;;;;;5135756;27;20476;-74
2021/10/31 09:56:29;;;;;;;4.40;4.00;;;16.70;80.60;;;;;;5137593;27;20484;-74
2021/10/31 09:58:59;;;;;;;4.73;4.07;;;16.90;78.30;;;;;;5136060;27;20533;-73
2021/10/31 10:01:38;;;;;;;5.40;4.23;;;16.90;77.50;;;;;;5135522;27;20449;-75
2021/10/31 10:04:06;;;;;;;4.80;4.30;;;16.90;78.00;;;;;;5134921;27;20477;-74
2021/10/31 10:06:33;;;;;;;4.87;4.47;;;16.80;78.70;;;;;;5134914;27;20464;-73
2021/10/31 10:09:05;;;;;;;6.30;5.00;;;17.00;78.90;;;;;;5135498;27;20530;-74
2021/10/31 10:11:34;;;;;;;6.10;5.60;;;16.80;80.30;;;;;;5134936;27;20523;-74
2021/10/31 10:14:13;;;;;;;5.97;5.37;;;16.90;81.50;;;;;;5134130;27;20481;-74
2021/10/31 10:16:41;;;;;;;5.07;4.47;;;16.90;81.30;;;;;;5134880;27;20441;-74
2021/10/31 10:19:21;;;;;;;6.47;4.90;;;16.90;82.60;;;;;;5135005;27;20453;-73
2021/10/31 10:21:57;;;;;;;5.20;4.70;;;17.10;82.80;;;;;;5135043;27;20437;-73
2021/10/31 10:24:25;;;;;;;4.77;4.37;;;17.30;82.90;;;;;;5135105;27;20793;-73
2021/10/31 10:26:56;;;;;;;5.40;4.73;;;17.50;81.90;;;;;;5135213;27;20548;-74
2021/10/31 10:29:26;;;;;;;5.97;5.37;;;17.30;80.70;;;;;;5133199;27;20582;-73
2021/10/31 10:31:55;;;;;;;5.83;5.27;;;17.10;84.50;;;;;;5134185;27;20551;-73
2021/10/31 10:34:38;;;;;;;5.77;5.30;;;17.10;84.30;;;;;;5138923;27;20520;-75
2021/10/31 10:37:10;;;;;;;5.43;4.87;;;17.00;87.00;;;;;;5142616;27;20449;-73
2021/10/31 10:39:38;;;;;;;6.17;5.20;;;17.30;85.00;;;;;;5135486;27;20469;-73
2021/10/31 10:42:06;;;;;;;7.17;5.00;;;17.30;83.90;;;;;;5135922;27;20453;-73
2021/10/31 10:44:34;;;;;;;5.70;5.20;;;17.20;84.40;;;;;;5136117;27;20567;-73
2021/10/31 10:47:04;;;;;;;5.93;5.30;;;17.10;86.70;;;;;;5136419;27;20455;-73
2021/10/31 10:49:35;;;;;;;5.13;4.63;;;17.40;85.20;;;;;;5136564;27;20553;-74
2021/10/31 10:52:20;;;;;;;4.50;4.10;;;17.70;83.30;;;;;;5138149;27;20440;-74
2021/10/31 10:54:50;;;;;;;6.70;3.83;;;17.90;80.00;;;;;;5147613;27;20438;-74
2021/10/31 10:57:17;;;;;;;4.70;4.20;;;17.70;82.10;;;;;;5150837;27;20441;-73
2021/10/31 10:59:44;;;;;;;5.53;4.33;;;17.80;81.30;;;;;;5151611;27;20469;-74
2021/10/31 11:02:13;;;;;;;8.00;4.20;;;17.80;80.90;;;;;;5141352;27;20564;-73
2021/10/31 11:04:43;;;;;;;6.13;4.40;;;17.60;83.20;;;;;;5135417;27;20445;-73
2021/10/31 11:07:11;;;;;;;3.77;3.47;;;17.60;83.20;;;;;;5140558;27;20508;-75
2021/10/31 11:09:40;;;;;;;3.50;3.20;;;17.70;84.70;;;;;;5147128;27;20512;-74
2021/10/31 11:12:29;;;;;;;3.70;3.40;;;18.10;82.10;;;;;;5151207;27;20461;-74
2021/10/31 11:14:58;;;;;;;3.80;3.47;;;18.50;79.00;;;;;;5149758;27;20827;-74
2021/10/31 11:17:26;;;;;;;4.73;3.33;;;18.70;77.20;;;;;;5148224;27;20449;-73
2021/10/31 11:19:55;;;;;;;3.20;2.83;;;18.80;76.50;;;;;;5137794;27;20481;-74
2021/10/31 11:22:23;;;;;;;3.40;3.20;;;18.90;75.70;;;;;;5135253;27;20500;-74
2021/10/31 11:24:52;;;;;;;3.47;3.17;;;19.00;75.80;;;;;;5134287;27;20445;-74
2021/10/31 11:27:21;;;;;;;2.93;2.73;;;19.00;75.80;;;;;;5134141;27;20546;-74
2021/10/31 11:29:50;;;;;;;3.77;3.33;;;19.30;75.40;;;;;;5134209;27;20520;-74
2021/10/31 11:32:18;;;;;;;4.80;3.70;;;19.30;74.50;;;;;;5135660;27;20480;-74
2021/10/31 11:34:47;;;;;;;4.53;3.17;;;19.50;74.70;;;;;;5142503;27;20480;-73
2021/10/31 11:37:19;;;;;;;5.90;2.57;;;19.50;73.40;;;;;;5153986;27;20449;-73
2021/10/31 11:39:47;;;;;;;3.73;2.77;;;19.80;71.80;;;;;;5154908;27;20483;-73
2021/10/31 11:42:17;;;;;;;2.50;2.30;;;19.90;71.20;;;;;;5156016;27;21036;-71
2021/10/31 11:45:06;;;;;;;3.10;2.57;;;19.60;71.80;;;;;;5142482;27;20461;-74
2021/10/31 11:47:33;;;;;;;2.10;1.90;;;19.80;70.90;;;;;;5138468;27;20457;-74
2021/10/31 11:50:20;;;;;;;2.80;2.13;;;19.80;67.60;;;;;;5136900;27;20492;-74
2021/10/31 11:53:03;;;;;;;6.73;2.07;;;19.80;69.20;;;;;;5136856;27;20517;-75
2021/10/31 11:55:53;;;;;;;2.20;2.00;;;19.70;67.50;;;;;;5135905;27;20479;-74
2021/10/31 11:58:55;;;;;;;1.77;1.67;;;19.70;68.00;;;;;;5137190;27;20445;-74
2021/10/31 12:01:35;;;;;;;2.03;1.63;;;19.80;67.60;;;;;;5136704;27;20473;-74
2021/10/31 12:04:03;;;;;;;3.53;1.70;;;20.10;66.10;;;;;;5136528;27;20472;-76
2021/10/31 12:06:41;;;;;;;1.87;1.77;;;20.20;62.90;;;;;;5136384;27;20492;-74
2021/10/31 12:09:26;;;;;;;2.37;1.50;;;20.30;61.10;;;;;;5136401;27;20436;-74
2021/10/31 12:12:14;;;;;;;1.80;1.70;;;20.60;59.20;;;;;;5136455;27;20445;-74
2021/10/31 12:14:49;;;;;;;2.90;1.60;;;20.70;59.30;;;;;;5136493;27;20821;-74
2021/10/31 12:17:17;;;;;;;1.60;1.50;;;20.80;58.80;;;;;;5136521;27;20433;-74
2021/10/31 12:19:46;;;;;;;1.40;1.30;;;20.70;59.30;;;;;;5136686;27;20449;-74
2021/10/31 12:22:15;;;;;;;3.80;2.23;;;20.60;58.10;;;;;;5136406;27;20852;-73
2021/10/31 12:24:46;;;;;;;1.53;1.43;;;20.40;59.00;;;;;;5136841;27;20496;-74
2021/10/31 12:27:15;;;;;;;1.80;1.70;;;20.30;58.90;;;;;;5136627;27;20505;-74
2021/10/31 12:30:22;;;;;;;1.77;1.67;;;20.30;58.90;;;;;;5136695;27;20492;-74
2021/10/31 12:32:50;;;;;;;2.37;1.70;;;20.10;57.80;;;;;;5135191;27;20469;-75
2021/10/31 12:35:30;;;;;;;3.27;2.10;;;20.00;58.60;;;;;;5138003;27;20517;-74
2021/10/31 12:38:30;;;;;;;2.90;2.00;;;20.10;58.70;;;;;;5138365;27;20448;-74
2021/10/31 12:41:21;;;;;;;3.87;1.97;;;20.10;58.70;;;;;;5152580;27;20446;-75
2021/10/31 12:43:51;;;;;;;3.13;2.20;;;20.10;58.70;;;;;;5157306;27;20461;-73
2021/10/31 12:46:23;;;;;;;2.63;2.20;;;20.20;58.80;;;;;;5149010;27;20449;-74
2021/10/31 12:48:51;;;;;;;2.70;2.33;;;20.40;59.00;;;;;;5141985;27;20479;-74
2021/10/31 12:51:38;;;;;;;3.20;2.90;;;20.50;58.30;;;;;;5157606;27;20487;-75